KEKQ

Wayne County Airport

Monticello, Kentucky, USA
METAR KEKQ 241256Z AUTO 28007KT 10SM -RA SCT049 BKN065 OVC080 21/20 A3012 RMK AO2 SLP214 T02060200 PNO $
Observed Flight Rules
Sep-24 @ 12:56 UTC (41 minutes ago) Visual Flight Rules
Wind Visibility Clouds Conditions
280° at 7 knots 10 miles
  • Scattered at 4,900' AGL
  • Broken at 6,500' AGL
  • Overcast at 8,000' AGL
  • Light Rain
Temperatures Readings
Current 21°C / 70°F
Dewpoint 20°C / 68°F
Humidity 94%
Altimeter 30.12" Hg
Pressure 1021.4 hPa
Elevation 294
METAR KEKQ 241256Z AUTO 28007KT 10SM -RA SCT049 BKN065 OVC080 21/20 A3012 RMK AO2 SLP214 T02060200 PNO $
Observed Flight Rules
Sep-24 @ 12:56 UTC
(41 minutes ago)
VFR
Wind Visibility
280° at 7 knots 10 miles
Clouds
  • Scattered at 4,900' AGL
  • Broken at 6,500' AGL
  • Overcast at 8,000' AGL
Conditions
  • Light Rain
Temperature Dewpoint
21°C / 70°F 20°C / 68°F
Humidity Altimeter Pressure
94% 30.12" Hg 1021.4 hPa